EHEH Airport Information

Runway Information
Runway 03 Length 9843 ft width 148 ft
Elevation 73 ft Threshold 821 ft Heading 31
Runway 21 Length 9843 ft Width 148 ft
Elevation 67 ft Threshold 821 ft Heading 213
Airport Frequencies
Type APP Name APP Frequency 123.175 MHZ
Type ATIS Name ATIS Frequency 126.025 MHZ
Type DIR Name DIRECTOR Frequency 124.525 MHZ
Type GND Name GND Frequency 121.925 MHZ
Type TWR Name TWR Frequency 131 MHZ
Airport Navaids
Type NDB Name Eindhoven Frequency 397 KHZ
Type TACAN Name Eindhoven Frequency 117200 KHZ
Airport Weather Information & NOTAM
ADDS - METARS form results

(0445 UTC 29 June 2022)
Data provider http://aviationweather.gov/metar/data/
 
METAR text: EHEH 290430Z AUTO 12003KT 340V080 9999 NCD 16/12 Q1014 BLU NOSIG
Conditions at: EHEH (EINDHOVEN RNLAFB, NL) observed 0430 UTC 29 June 2022
Temperature: 16.0°C (61°F)
Dewpoint: 12.0°C (54°F) [RH = 77%]
Pressure (altimeter): 29.94 inches Hg (1014.0 mb)
Winds: from the ESE (120 degrees) at 3 MPH (3 knots; 1.5 m/s)
Visibility: 6 or more miles (10+ km)
Ceiling: at least 12,000 feet AGL
Clouds: sky clear below 12,000 feet AGL
Weather: no significant weather observed at this time

METAR text: EHEH 290425Z AUTO 13002KT 9999 FEW067 16/12 Q1014 BLU
Conditions at: EHEH (EINDHOVEN RNLAFB, NL) observed 0425 UTC 29 June 2022
Temperature: 16.0°C (61°F)
Dewpoint: 12.0°C (54°F) [RH = 77%]
Pressure (altimeter): 29.94 inches Hg (1014.0 mb)
Winds: from the SE (130 degrees) at 2 MPH (2 knots; 1.0 m/s)
Visibility: 6 or more miles (10+ km)
Ceiling: at least 12,000 feet AGL
Clouds: few clouds at 6700 feet AGL
Weather: no significant weather observed at this time

METAR text: EHEH 290355Z AUTO 11003KT 340V060 9999 SCT068 16/11 Q1015 BLU
Conditions at: EHEH (EINDHOVEN RNLAFB, NL) observed 0355 UTC 29 June 2022
Temperature: 16.0°C (61°F)
Dewpoint: 11.0°C (52°F) [RH = 72%]
Pressure (altimeter): 29.97 inches Hg (1015.0 mb)
Winds: from the ESE (110 degrees) at 3 MPH (3 knots; 1.5 m/s)
Visibility: 6 or more miles (10+ km)
Ceiling: at least 12,000 feet AGL
Clouds: scattered clouds at 6800 feet AGL
Weather: no significant weather observed at this time

Forecast for: EHEH (EINDHOVEN RNLAFB, NL)
Text: TAF EHEH 282308Z 2900/3006 08005KT CAVOK
Forecast period: 0000 to 0500 UTC 29 June 2022
Forecast type: FROM: standard forecast or significant change
Winds: from the E (80 degrees) at 6 MPH (5 knots; 2.6 m/s)
Visibility: 6 or more miles (10+ km)
Ceiling: unknown
Clouds: missing
Weather: NSW  (no significant weather)
Text: BECMG 2905/2907 14004KT
Forecast period: 0500 to 1700 UTC 29 June 2022
Forecast type: BECOMING: Conditions expected to become as follows by 0700 UTC 29 June 2022
Winds: from the SE (140 degrees) at 5 MPH (4 knots; 2.1 m/s)
Visibility: 6 or more miles (10+ km)
Ceiling: unknown
Clouds: missing
Weather: NSW  (no significant weather)
Text: BECMG 2917/2919 33005KT
Forecast period: 1700 UTC 29 June 2022 to 0600 UTC 30 June 2022
Forecast type: BECOMING: Conditions expected to become as follows by 1900 UTC 29 June 2022
Winds: from the NNW (330 degrees) at 6 MPH (5 knots; 2.6 m/s)
Visibility: 6 or more miles (10+ km)
Ceiling: unknown
Clouds: missing
Weather: NSW  (no significant weather)